sensor_id;sensor_type;location;lat;lon;timestamp;temperature;humidity
10722;DHT22;5412;59.450;18.124;2022-12-18T00:01:35;0.40;99.90
10722;DHT22;5412;59.450;18.124;2022-12-18T00:04:07;0.50;99.90
10722;DHT22;5412;59.450;18.124;2022-12-18T00:06:35;0.60;99.90
10722;DHT22;5412;59.450;18.124;2022-12-18T00:09:01;0.40;99.90
10722;DHT22;5412;59.450;18.124;2022-12-18T00:11:29;0.50;99.90
10722;DHT22;5412;59.450;18.124;2022-12-18T00:13:57;0.60;99.90
10722;DHT22;5412;59.450;18.124;2022-12-18T00:16:25;0.60;99.90
10722;DHT22;5412;59.450;18.124;2022-12-18T00:18:53;0.40;99.90
10722;DHT22;5412;59.450;18.124;2022-12-18T00:21:20;0.50;99.90
10722;DHT22;5412;59.450;18.124;2022-12-18T00:23:47;0.50;99.90
10722;DHT22;5412;59.450;18.124;2022-12-18T00:26:15;0.40;99.90
10722;DHT22;5412;59.450;18.124;2022-12-18T00:28:43;0.50;99.90
10722;DHT22;5412;59.450;18.124;2022-12-18T00:31:12;0.40;99.90
10722;DHT22;5412;59.450;18.124;2022-12-18T00:33:38;0.30;99.90
10722;DHT22;5412;59.450;18.124;2022-12-18T00:36:10;0.40;99.90
10722;DHT22;5412;59.450;18.124;2022-12-18T00:38:37;0.30;99.90
10722;DHT22;5412;59.450;18.124;2022-12-18T00:41:03;0.40;99.90
10722;DHT22;5412;59.450;18.124;2022-12-18T00:43:29;0.40;99.90
10722;DHT22;5412;59.450;18.124;2022-12-18T00:45:55;0.30;99.90
10722;DHT22;5412;59.450;18.124;2022-12-18T00:48:21;0.50;99.90
10722;DHT22;5412;59.450;18.124;2022-12-18T00:50:50;0.40;99.90
10722;DHT22;5412;59.450;18.124;2022-12-18T00:53:16;0.50;99.90
10722;DHT22;5412;59.450;18.124;2022-12-18T00:55:42;0.50;99.90
10722;DHT22;5412;59.450;18.124;2022-12-18T00:58:09;0.50;99.90
10722;DHT22;5412;59.450;18.124;2022-12-18T01:00:36;0.50;99.90
10722;DHT22;5412;59.450;18.124;2022-12-18T01:03:02;0.40;99.90
10722;DHT22;5412;59.450;18.124;2022-12-18T01:05:28;0.40;99.90
10722;DHT22;5412;59.450;18.124;2022-12-18T01:07:54;0.50;99.90
10722;DHT22;5412;59.450;18.124;2022-12-18T01:10:20;0.40;99.90
10722;DHT22;5412;59.450;18.124;2022-12-18T01:12:46;0.50;99.90
10722;DHT22;5412;59.450;18.124;2022-12-18T01:15:13;0.50;99.90
10722;DHT22;5412;59.450;18.124;2022-12-18T01:17:39;0.40;99.90
10722;DHT22;5412;59.450;18.124;2022-12-18T01:20:05;0.30;99.90
10722;DHT22;5412;59.450;18.124;2022-12-18T01:22:34;0.40;99.90
10722;DHT22;5412;59.450;18.124;2022-12-18T01:25:00;0.40;99.90
10722;DHT22;5412;59.450;18.124;2022-12-18T01:27:26;0.40;99.90
10722;DHT22;5412;59.450;18.124;2022-12-18T01:29:51;0.30;99.90
10722;DHT22;5412;59.450;18.124;2022-12-18T01:32:17;0.50;99.90
10722;DHT22;5412;59.450;18.124;2022-12-18T01:34:43;0.40;99.90
10722;DHT22;5412;59.450;18.124;2022-12-18T01:37:09;0.40;99.90
10722;DHT22;5412;59.450;18.124;2022-12-18T01:39:34;0.40;99.90
10722;DHT22;5412;59.450;18.124;2022-12-18T01:42:02;0.40;99.90
10722;DHT22;5412;59.450;18.124;2022-12-18T01:45:01;0.40;99.90
10722;DHT22;5412;59.450;18.124;2022-12-18T01:47:48;0.50;99.90
10722;DHT22;5412;59.450;18.124;2022-12-18T01:53:05;0.60;99.90
10722;DHT22;5412;59.450;18.124;2022-12-18T01:55:38;0.70;99.90
10722;DHT22;5412;59.450;18.124;2022-12-18T01:58:05;0.80;99.90
10722;DHT22;5412;59.450;18.124;2022-12-18T02:00:31;0.80;99.90
10722;DHT22;5412;59.450;18.124;2022-12-18T02:02:57;0.80;99.90
10722;DHT22;5412;59.450;18.124;2022-12-18T02:08:23;0.70;99.90
10722;DHT22;5412;59.450;18.124;2022-12-18T02:16:25;0.70;99.90
10722;DHT22;5412;59.450;18.124;2022-12-18T02:18:57;0.70;99.90
10722;DHT22;5412;59.450;18.124;2022-12-18T02:21:46;0.60;99.90
10722;DHT22;5412;59.450;18.124;2022-12-18T02:27:30;0.50;99.90
10722;DHT22;5412;59.450;18.124;2022-12-18T02:29:57;0.50;99.90
10722;DHT22;5412;59.450;18.124;2022-12-18T02:32:28;0.60;99.90
10722;DHT22;5412;59.450;18.124;2022-12-18T02:34:57;0.50;99.90
10722;DHT22;5412;59.450;18.124;2022-12-18T02:37:25;0.60;99.90
10722;DHT22;5412;59.450;18.124;2022-12-18T02:39:53;0.60;99.90
10722;DHT22;5412;59.450;18.124;2022-12-18T02:42:20;0.70;99.90
10722;DHT22;5412;59.450;18.124;2022-12-18T02:44:49;0.60;99.90
10722;DHT22;5412;59.450;18.124;2022-12-18T02:47:18;0.60;99.90
10722;DHT22;5412;59.450;18.124;2022-12-18T02:58:24;0.70;99.90
10722;DHT22;5412;59.450;18.124;2022-12-18T03:03:39;0.80;99.90
10722;DHT22;5412;59.450;18.124;2022-12-18T03:06:10;0.70;99.90
10722;DHT22;5412;59.450;18.124;2022-12-18T03:08:40;0.70;99.90
10722;DHT22;5412;59.450;18.124;2022-12-18T03:11:12;0.70;99.90
10722;DHT22;5412;59.450;18.124;2022-12-18T03:13:43;0.70;99.90
10722;DHT22;5412;59.450;18.124;2022-12-18T03:16:14;0.80;99.90
10722;DHT22;5412;59.450;18.124;2022-12-18T03:19:00;0.80;99.90
10722;DHT22;5412;59.450;18.124;2022-12-18T03:21:32;0.80;99.90
10722;DHT22;5412;59.450;18.124;2022-12-18T03:24:00;0.80;99.90
10722;DHT22;5412;59.450;18.124;2022-12-18T03:26:28;0.80;99.90
10722;DHT22;5412;59.450;18.124;2022-12-18T03:29:00;0.80;99.90
10722;DHT22;5412;59.450;18.124;2022-12-18T03:31:29;0.70;99.90
10722;DHT22;5412;59.450;18.124;2022-12-18T03:33:58;0.80;99.90
10722;DHT22;5412;59.450;18.124;2022-12-18T03:36:25;0.80;99.90
10722;DHT22;5412;59.450;18.124;2022-12-18T03:38:52;0.80;99.90
10722;DHT22;5412;59.450;18.124;2022-12-18T03:41:31;0.80;99.90
10722;DHT22;5412;59.450;18.124;2022-12-18T03:49:54;0.80;99.90
10722;DHT22;5412;59.450;18.124;2022-12-18T03:52:46;0.80;99.90
10722;DHT22;5412;59.450;18.124;2022-12-18T03:55:14;0.70;99.90
10722;DHT22;5412;59.450;18.124;2022-12-18T03:57:41;0.70;99.90
10722;DHT22;5412;59.450;18.124;2022-12-18T04:00:14;0.80;99.90
10722;DHT22;5412;59.450;18.124;2022-12-18T04:02:54;0.90;99.90
10722;DHT22;5412;59.450;18.124;2022-12-18T04:05:22;0.90;99.90
10722;DHT22;5412;59.450;18.124;2022-12-18T04:07:50;0.80;99.90
10722;DHT22;5412;59.450;18.124;2022-12-18T04:10:17;0.70;99.90
10722;DHT22;5412;59.450;18.124;2022-12-18T04:12:43;0.70;99.90
10722;DHT22;5412;59.450;18.124;2022-12-18T04:15:10;0.70;99.90
10722;DHT22;5412;59.450;18.124;2022-12-18T04:17:37;0.70;99.90
10722;DHT22;5412;59.450;18.124;2022-12-18T04:20:03;0.80;99.90
10722;DHT22;5412;59.450;18.124;2022-12-18T04:22:29;0.80;99.90
10722;DHT22;5412;59.450;18.124;2022-12-18T04:24:54;0.80;99.90
10722;DHT22;5412;59.450;18.124;2022-12-18T04:27:20;0.80;99.90
10722;DHT22;5412;59.450;18.124;2022-12-18T04:29:46;0.90;99.90
10722;DHT22;5412;59.450;18.124;2022-12-18T04:32:12;0.90;99.90
10722;DHT22;5412;59.450;18.124;2022-12-18T04:34:38;0.80;99.90
10722;DHT22;5412;59.450;18.124;2022-12-18T04:37:03;1.00;99.90
10722;DHT22;5412;59.450;18.124;2022-12-18T04:39:29;0.80;99.90
10722;DHT22;5412;59.450;18.124;2022-12-18T04:41:55;1.00;99.90
10722;DHT22;5412;59.450;18.124;2022-12-18T04:44:21;0.70;99.90
10722;DHT22;5412;59.450;18.124;2022-12-18T04:46:46;0.60;99.90
10722;DHT22;5412;59.450;18.124;2022-12-18T04:49:12;0.60;99.90
10722;DHT22;5412;59.450;18.124;2022-12-18T04:51:38;0.60;99.90
10722;DHT22;5412;59.450;18.124;2022-12-18T04:54:04;0.70;99.90
10722;DHT22;5412;59.450;18.124;2022-12-18T04:56:31;0.50;99.90
10722;DHT22;5412;59.450;18.124;2022-12-18T04:58:57;0.50;99.90
10722;DHT22;5412;59.450;18.124;2022-12-18T05:01:23;0.60;99.90
10722;DHT22;5412;59.450;18.124;2022-12-18T05:03:50;0.60;99.90
10722;DHT22;5412;59.450;18.124;2022-12-18T05:06:16;0.60;99.90
10722;DHT22;5412;59.450;18.124;2022-12-18T05:08:42;0.60;99.90
10722;DHT22;5412;59.450;18.124;2022-12-18T05:11:13;0.50;99.90
10722;DHT22;5412;59.450;18.124;2022-12-18T05:13:43;0.60;99.90
10722;DHT22;5412;59.450;18.124;2022-12-18T05:16:10;0.50;99.90
10722;DHT22;5412;59.450;18.124;2022-12-18T05:18:36;0.60;99.90
10722;DHT22;5412;59.450;18.124;2022-12-18T05:21:02;0.50;99.90
10722;DHT22;5412;59.450;18.124;2022-12-18T05:23:28;0.60;99.90
10722;DHT22;5412;59.450;18.124;2022-12-18T05:25:55;0.70;99.90
10722;DHT22;5412;59.450;18.124;2022-12-18T05:28:23;0.60;99.90
10722;DHT22;5412;59.450;18.124;2022-12-18T05:30:50;0.60;99.90
10722;DHT22;5412;59.450;18.124;2022-12-18T05:33:17;0.60;99.90
10722;DHT22;5412;59.450;18.124;2022-12-18T05:35:43;0.60;99.90
10722;DHT22;5412;59.450;18.124;2022-12-18T05:38:09;0.60;99.90
10722;DHT22;5412;59.450;18.124;2022-12-18T05:40:35;0.60;99.90
10722;DHT22;5412;59.450;18.124;2022-12-18T05:43:02;0.70;99.90
10722;DHT22;5412;59.450;18.124;2022-12-18T05:45:27;0.60;99.90
10722;DHT22;5412;59.450;18.124;2022-12-18T05:47:53;0.50;99.90
10722;DHT22;5412;59.450;18.124;2022-12-18T05:50:19;0.60;99.90
10722;DHT22;5412;59.450;18.124;2022-12-18T05:52:45;0.60;99.90
10722;DHT22;5412;59.450;18.124;2022-12-18T05:55:10;0.60;99.90
10722;DHT22;5412;59.450;18.124;2022-12-18T05:57:36;0.60;99.90
10722;DHT22;5412;59.450;18.124;2022-12-18T06:00:03;0.60;99.90
10722;DHT22;5412;59.450;18.124;2022-12-18T06:02:29;0.60;99.90
10722;DHT22;5412;59.450;18.124;2022-12-18T06:04:55;0.80;99.90
10722;DHT22;5412;59.450;18.124;2022-12-18T06:07:20;0.80;99.90
10722;DHT22;5412;59.450;18.124;2022-12-18T06:09:46;0.80;99.90
10722;DHT22;5412;59.450;18.124;2022-12-18T06:12:12;0.70;99.90
10722;DHT22;5412;59.450;18.124;2022-12-18T06:14:37;0.60;99.90
10722;DHT22;5412;59.450;18.124;2022-12-18T06:17:03;0.60;99.90
10722;DHT22;5412;59.450;18.124;2022-12-18T06:19:29;0.70;99.90
10722;DHT22;5412;59.450;18.124;2022-12-18T06:21:54;0.80;99.90
10722;DHT22;5412;59.450;18.124;2022-12-18T06:24:23;0.90;99.90
10722;DHT22;5412;59.450;18.124;2022-12-18T06:26:48;0.90;99.90
10722;DHT22;5412;59.450;18.124;2022-12-18T06:29:14;0.70;99.90
10722;DHT22;5412;59.450;18.124;2022-12-18T06:31:40;0.80;99.90
10722;DHT22;5412;59.450;18.124;2022-12-18T06:34:05;0.80;99.90
10722;DHT22;5412;59.450;18.124;2022-12-18T06:36:31;0.80;99.90
10722;DHT22;5412;59.450;18.124;2022-12-18T06:38:57;0.80;99.90
10722;DHT22;5412;59.450;18.124;2022-12-18T06:41:23;0.60;99.90
10722;DHT22;5412;59.450;18.124;2022-12-18T06:43:49;0.60;99.90
10722;DHT22;5412;59.450;18.124;2022-12-18T06:46:15;0.80;99.90
10722;DHT22;5412;59.450;18.124;2022-12-18T06:48:41;0.80;99.90
10722;DHT22;5412;59.450;18.124;2022-12-18T06:51:06;0.80;99.90
10722;DHT22;5412;59.450;18.124;2022-12-18T06:53:32;0.80;99.90
10722;DHT22;5412;59.450;18.124;2022-12-18T06:56:06;0.80;99.90
10722;DHT22;5412;59.450;18.124;2022-12-18T06:58:32;0.70;99.90
10722;DHT22;5412;59.450;18.124;2022-12-18T07:01:02;0.80;99.90
10722;DHT22;5412;59.450;18.124;2022-12-18T07:03:29;0.80;99.90
10722;DHT22;5412;59.450;18.124;2022-12-18T07:05:55;0.90;99.90
10722;DHT22;5412;59.450;18.124;2022-12-18T07:08:20;1.00;99.90
10722;DHT22;5412;59.450;18.124;2022-12-18T07:10:46;0.90;99.90
10722;DHT22;5412;59.450;18.124;2022-12-18T07:13:15;0.80;99.90
10722;DHT22;5412;59.450;18.124;2022-12-18T07:15:41;0.70;99.90
10722;DHT22;5412;59.450;18.124;2022-12-18T07:18:06;0.80;99.90
10722;DHT22;5412;59.450;18.124;2022-12-18T07:20:32;0.80;99.90
10722;DHT22;5412;59.450;18.124;2022-12-18T07:22:58;1.00;99.90
10722;DHT22;5412;59.450;18.124;2022-12-18T07:25:24;0.80;99.90
10722;DHT22;5412;59.450;18.124;2022-12-18T07:27:49;0.90;99.90
10722;DHT22;5412;59.450;18.124;2022-12-18T07:30:15;0.90;99.90
10722;DHT22;5412;59.450;18.124;2022-12-18T07:32:41;0.90;99.90
10722;DHT22;5412;59.450;18.124;2022-12-18T07:35:07;1.00;99.90
10722;DHT22;5412;59.450;18.124;2022-12-18T07:37:32;0.90;99.90
10722;DHT22;5412;59.450;18.124;2022-12-18T07:39:58;1.00;99.90
10722;DHT22;5412;59.450;18.124;2022-12-18T07:42:24;0.90;99.90
10722;DHT22;5412;59.450;18.124;2022-12-18T07:44:59;1.00;99.90
10722;DHT22;5412;59.450;18.124;2022-12-18T07:47:25;0.90;99.90
10722;DHT22;5412;59.450;18.124;2022-12-18T07:49:51;0.90;99.90
10722;DHT22;5412;59.450;18.124;2022-12-18T07:52:17;0.90;99.90
10722;DHT22;5412;59.450;18.124;2022-12-18T07:54:42;0.90;99.90
10722;DHT22;5412;59.450;18.124;2022-12-18T07:57:09;0.90;99.90
10722;DHT22;5412;59.450;18.124;2022-12-18T07:59:34;0.90;99.90
10722;DHT22;5412;59.450;18.124;2022-12-18T08:02:00;0.80;99.90
10722;DHT22;5412;59.450;18.124;2022-12-18T08:04:26;0.90;99.90
10722;DHT22;5412;59.450;18.124;2022-12-18T08:06:52;1.00;99.90
10722;DHT22;5412;59.450;18.124;2022-12-18T08:09:18;1.00;99.90
10722;DHT22;5412;59.450;18.124;2022-12-18T08:11:44;1.00;99.90
10722;DHT22;5412;59.450;18.124;2022-12-18T08:14:10;1.00;99.90
10722;DHT22;5412;59.450;18.124;2022-12-18T08:16:36;1.00;99.90
10722;DHT22;5412;59.450;18.124;2022-12-18T08:19:02;1.10;99.90
10722;DHT22;5412;59.450;18.124;2022-12-18T08:21:30;1.00;99.90
10722;DHT22;5412;59.450;18.124;2022-12-18T08:23:59;1.10;99.90
10722;DHT22;5412;59.450;18.124;2022-12-18T08:26:28;1.10;99.90
10722;DHT22;5412;59.450;18.124;2022-12-18T08:28:55;1.20;99.90
10722;DHT22;5412;59.450;18.124;2022-12-18T08:31:22;1.30;99.90
10722;DHT22;5412;59.450;18.124;2022-12-18T08:33:49;1.40;99.90
10722;DHT22;5412;59.450;18.124;2022-12-18T08:36:16;1.40;99.90
10722;DHT22;5412;59.450;18.124;2022-12-18T08:38:41;1.40;99.90
10722;DHT22;5412;59.450;18.124;2022-12-18T08:41:12;1.50;99.90
10722;DHT22;5412;59.450;18.124;2022-12-18T08:43:39;1.60;99.90
10722;DHT22;5412;59.450;18.124;2022-12-18T08:46:25;1.60;99.90
10722;DHT22;5412;59.450;18.124;2022-12-18T08:48:52;1.50;99.90
10722;DHT22;5412;59.450;18.124;2022-12-18T08:51:19;1.50;99.90
10722;DHT22;5412;59.450;18.124;2022-12-18T08:53:45;1.60;99.90
10722;DHT22;5412;59.450;18.124;2022-12-18T08:56:13;1.60;99.90
10722;DHT22;5412;59.450;18.124;2022-12-18T08:58:39;1.60;99.90
10722;DHT22;5412;59.450;18.124;2022-12-18T09:01:08;1.60;99.90
10722;DHT22;5412;59.450;18.124;2022-12-18T09:03:34;1.60;99.90
10722;DHT22;5412;59.450;18.124;2022-12-18T09:06:00;1.60;99.90
10722;DHT22;5412;59.450;18.124;2022-12-18T09:08:27;1.70;99.90
10722;DHT22;5412;59.450;18.124;2022-12-18T09:10:52;1.70;99.90
10722;DHT22;5412;59.450;18.124;2022-12-18T09:13:18;1.70;99.90
10722;DHT22;5412;59.450;18.124;2022-12-18T09:15:50;1.80;99.90
10722;DHT22;5412;59.450;18.124;2022-12-18T09:18:17;1.80;99.90
10722;DHT22;5412;59.450;18.124;2022-12-18T09:20:44;1.90;99.90
10722;DHT22;5412;59.450;18.124;2022-12-18T09:23:10;1.80;99.90
10722;DHT22;5412;59.450;18.124;2022-12-18T09:25:37;1.90;99.90
10722;DHT22;5412;59.450;18.124;2022-12-18T09:28:14;1.90;99.90
10722;DHT22;5412;59.450;18.124;2022-12-18T09:30:42;1.90;99.90
10722;DHT22;5412;59.450;18.124;2022-12-18T09:33:08;2.00;99.90
10722;DHT22;5412;59.450;18.124;2022-12-18T09:35:37;2.00;99.90
10722;DHT22;5412;59.450;18.124;2022-12-18T09:38:04;2.10;99.90
10722;DHT22;5412;59.450;18.124;2022-12-18T09:40:44;2.10;99.90
10722;DHT22;5412;59.450;18.124;2022-12-18T09:45:59;2.20;99.90
10722;DHT22;5412;59.450;18.124;2022-12-18T09:48:31;2.20;99.90
10722;DHT22;5412;59.450;18.124;2022-12-18T09:51:02;2.30;99.90
10722;DHT22;5412;59.450;18.124;2022-12-18T09:53:32;2.40;99.90
10722;DHT22;5412;59.450;18.124;2022-12-18T09:56:01;2.30;99.90
10722;DHT22;5412;59.450;18.124;2022-12-18T10:01:00;2.40;99.90
10722;DHT22;5412;59.450;18.124;2022-12-18T10:03:26;2.40;99.90
10722;DHT22;5412;59.450;18.124;2022-12-18T10:06:15;2.30;99.90
10722;DHT22;5412;59.450;18.124;2022-12-18T10:09:05;2.30;99.90
10722;DHT22;5412;59.450;18.124;2022-12-18T10:14:34;2.40;99.90
10722;DHT22;5412;59.450;18.124;2022-12-18T10:17:29;2.40;99.90
10722;DHT22;5412;59.450;18.124;2022-12-18T10:20:10;2.50;99.90
10722;DHT22;5412;59.450;18.124;2022-12-18T10:25:26;2.40;99.90
10722;DHT22;5412;59.450;18.124;2022-12-18T10:27:58;2.50;99.90
10722;DHT22;5412;59.450;18.124;2022-12-18T10:30:26;2.50;99.90
10722;DHT22;5412;59.450;18.124;2022-12-18T10:32:52;2.60;99.90
10722;DHT22;5412;59.450;18.124;2022-12-18T10:35:24;2.60;99.90
10722;DHT22;5412;59.450;18.124;2022-12-18T10:40:29;2.50;99.90
10722;DHT22;5412;59.450;18.124;2022-12-18T10:43:14;2.70;99.90
10722;DHT22;5412;59.450;18.124;2022-12-18T10:45:41;2.70;99.90
10722;DHT22;5412;59.450;18.124;2022-12-18T10:48:21;2.70;99.90
10722;DHT22;5412;59.450;18.124;2022-12-18T10:50:50;2.60;99.90
10722;DHT22;5412;59.450;18.124;2022-12-18T10:53:26;2.60;99.90
10722;DHT22;5412;59.450;18.124;2022-12-18T10:55:53;2.60;99.90
10722;DHT22;5412;59.450;18.124;2022-12-18T10:58:27;2.60;99.90
10722;DHT22;5412;59.450;18.124;2022-12-18T11:01:16;2.70;99.90
10722;DHT22;5412;59.450;18.124;2022-12-18T11:03:45;2.70;99.90
10722;DHT22;5412;59.450;18.124;2022-12-18T11:06:16;2.70;99.90
10722;DHT22;5412;59.450;18.124;2022-12-18T11:08:45;2.70;99.90
10722;DHT22;5412;59.450;18.124;2022-12-18T11:11:23;2.70;99.90
10722;DHT22;5412;59.450;18.124;2022-12-18T11:14:05;2.70;99.90
10722;DHT22;5412;59.450;18.124;2022-12-18T11:16:42;2.70;99.90
10722;DHT22;5412;59.450;18.124;2022-12-18T11:19:21;2.80;99.90
10722;DHT22;5412;59.450;18.124;2022-12-18T11:21:50;2.60;99.90
10722;DHT22;5412;59.450;18.124;2022-12-18T11:24:33;2.70;99.90
10722;DHT22;5412;59.450;18.124;2022-12-18T11:27:04;2.70;99.90
10722;DHT22;5412;59.450;18.124;2022-12-18T11:29:36;2.70;99.90
10722;DHT22;5412;59.450;18.124;2022-12-18T11:35:03;2.60;99.90
10722;DHT22;5412;59.450;18.124;2022-12-18T11:37:29;2.70;99.90
10722;DHT22;5412;59.450;18.124;2022-12-18T11:40:01;2.60;99.90
10722;DHT22;5412;59.450;18.124;2022-12-18T11:42:38;2.60;99.90
10722;DHT22;5412;59.450;18.124;2022-12-18T11:48:03;2.60;99.90
10722;DHT22;5412;59.450;18.124;2022-12-18T11:53:02;2.60;99.90
10722;DHT22;5412;59.450;18.124;2022-12-18T12:00:55;2.60;99.90
10722;DHT22;5412;59.450;18.124;2022-12-18T12:06:17;2.70;99.90
10722;DHT22;5412;59.450;18.124;2022-12-18T12:18:31;2.70;99.90
10722;DHT22;5412;59.450;18.124;2022-12-18T12:24:30;2.90;99.90
10722;DHT22;5412;59.450;18.124;2022-12-18T12:27:25;2.90;99.90
10722;DHT22;5412;59.450;18.124;2022-12-18T12:32:59;3.00;99.90
10722;DHT22;5412;59.450;18.124;2022-12-18T12:35:36;3.00;99.90
10722;DHT22;5412;59.450;18.124;2022-12-18T12:38:36;2.90;99.90
10722;DHT22;5412;59.450;18.124;2022-12-18T12:41:08;2.90;99.90
10722;DHT22;5412;59.450;18.124;2022-12-18T12:43:57;3.00;99.90
10722;DHT22;5412;59.450;18.124;2022-12-18T12:46:25;3.00;99.90
10722;DHT22;5412;59.450;18.124;2022-12-18T12:49:15;3.00;99.90
10722;DHT22;5412;59.450;18.124;2022-12-18T12:51:45;3.00;99.90
10722;DHT22;5412;59.450;18.124;2022-12-18T12:54:23;3.10;99.90
10722;DHT22;5412;59.450;18.124;2022-12-18T12:56:52;3.10;99.90
10722;DHT22;5412;59.450;18.124;2022-12-18T13:02:28;3.00;99.90
10722;DHT22;5412;59.450;18.124;2022-12-18T13:07:50;3.20;99.90
10722;DHT22;5412;59.450;18.124;2022-12-18T13:12:56;3.10;99.90
10722;DHT22;5412;59.450;18.124;2022-12-18T13:15:43;3.10;99.90
10722;DHT22;5412;59.450;18.124;2022-12-18T13:20:39;3.10;99.90
10722;DHT22;5412;59.450;18.124;2022-12-18T13:32:00;3.30;99.90
10722;DHT22;5412;59.450;18.124;2022-12-18T13:34:19;3.30;99.90
10722;DHT22;5412;59.450;18.124;2022-12-18T13:36:45;3.30;99.90
10722;DHT22;5412;59.450;18.124;2022-12-18T13:41:47;3.40;99.90
10722;DHT22;5412;59.450;18.124;2022-12-18T13:47:02;3.50;99.90
10722;DHT22;5412;59.450;18.124;2022-12-18T13:49:40;3.60;99.90
10722;DHT22;5412;59.450;18.124;2022-12-18T13:52:24;3.40;99.90
10722;DHT22;5412;59.450;18.124;2022-12-18T13:54:57;3.40;99.90
10722;DHT22;5412;59.450;18.124;2022-12-18T13:57:37;3.40;99.90
10722;DHT22;5412;59.450;18.124;2022-12-18T14:02:47;3.40;99.90
10722;DHT22;5412;59.450;18.124;2022-12-18T14:05:31;3.40;99.90
10722;DHT22;5412;59.450;18.124;2022-12-18T14:08:11;3.40;99.90
10722;DHT22;5412;59.450;18.124;2022-12-18T14:10:46;3.50;99.90
10722;DHT22;5412;59.450;18.124;2022-12-18T14:15:50;3.50;99.90
10722;DHT22;5412;59.450;18.124;2022-12-18T14:19:11;3.50;99.90
10722;DHT22;5412;59.450;18.124;2022-12-18T14:21:27;3.50;99.90
10722;DHT22;5412;59.450;18.124;2022-12-18T14:24:21;3.50;99.90
10722;DHT22;5412;59.450;18.124;2022-12-18T14:26:49;3.60;99.90
10722;DHT22;5412;59.450;18.124;2022-12-18T14:29:25;3.60;99.90
10722;DHT22;5412;59.450;18.124;2022-12-18T14:32:11;3.50;99.90
10722;DHT22;5412;59.450;18.124;2022-12-18T14:34:38;3.50;99.90
10722;DHT22;5412;59.450;18.124;2022-12-18T14:37:04;3.50;99.90
10722;DHT22;5412;59.450;18.124;2022-12-18T14:39:30;3.60;99.90
10722;DHT22;5412;59.450;18.124;2022-12-18T14:41:56;3.50;99.90
10722;DHT22;5412;59.450;18.124;2022-12-18T14:44:21;3.50;99.90
10722;DHT22;5412;59.450;18.124;2022-12-18T14:46:49;3.50;99.90
10722;DHT22;5412;59.450;18.124;2022-12-18T14:51:50;3.50;99.90
10722;DHT22;5412;59.450;18.124;2022-12-18T14:54:19;3.60;99.90
10722;DHT22;5412;59.450;18.124;2022-12-18T14:59:24;3.50;99.90
10722;DHT22;5412;59.450;18.124;2022-12-18T15:02:34;3.50;99.90
10722;DHT22;5412;59.450;18.124;2022-12-18T15:05:27;3.50;99.90
10722;DHT22;5412;59.450;18.124;2022-12-18T15:07:55;3.40;99.90
10722;DHT22;5412;59.450;18.124;2022-12-18T15:10:24;3.30;99.90
10722;DHT22;5412;59.450;18.124;2022-12-18T15:21:17;3.50;99.90
10722;DHT22;5412;59.450;18.124;2022-12-18T15:26:10;3.50;99.90
10722;DHT22;5412;59.450;18.124;2022-12-18T15:36:16;3.60;99.90
10722;DHT22;5412;59.450;18.124;2022-12-18T15:38:46;3.60;99.90
10722;DHT22;5412;59.450;18.124;2022-12-18T15:41:20;3.60;99.90
10722;DHT22;5412;59.450;18.124;2022-12-18T15:43:48;3.60;99.90
10722;DHT22;5412;59.450;18.124;2022-12-18T15:46:18;3.60;99.90
10722;DHT22;5412;59.450;18.124;2022-12-18T15:48:52;3.60;99.90
10722;DHT22;5412;59.450;18.124;2022-12-18T15:51:31;3.50;99.90
10722;DHT22;5412;59.450;18.124;2022-12-18T15:53:59;3.60;99.90
10722;DHT22;5412;59.450;18.124;2022-12-18T15:56:26;3.60;99.90
10722;DHT22;5412;59.450;18.124;2022-12-18T15:59:13;3.60;99.90
10722;DHT22;5412;59.450;18.124;2022-12-18T16:01:40;3.60;99.90
10722;DHT22;5412;59.450;18.124;2022-12-18T16:04:08;3.60;99.90
10722;DHT22;5412;59.450;18.124;2022-12-18T16:06:35;3.60;99.90
10722;DHT22;5412;59.450;18.124;2022-12-18T16:09:00;3.60;99.90
10722;DHT22;5412;59.450;18.124;2022-12-18T16:11:31;3.70;99.90
10722;DHT22;5412;59.450;18.124;2022-12-18T16:14:19;3.70;99.90
10722;DHT22;5412;59.450;18.124;2022-12-18T16:16:47;3.60;99.90
10722;DHT22;5412;59.450;18.124;2022-12-18T16:19:13;3.60;99.90
10722;DHT22;5412;59.450;18.124;2022-12-18T16:21:39;3.60;99.90
10722;DHT22;5412;59.450;18.124;2022-12-18T16:24:05;3.50;99.90
10722;DHT22;5412;59.450;18.124;2022-12-18T16:26:30;3.60;99.90
10722;DHT22;5412;59.450;18.124;2022-12-18T16:28:56;3.60;99.90
10722;DHT22;5412;59.450;18.124;2022-12-18T16:31:22;3.60;99.90
10722;DHT22;5412;59.450;18.124;2022-12-18T16:33:48;3.60;99.90
10722;DHT22;5412;59.450;18.124;2022-12-18T16:36:13;3.60;99.90
10722;DHT22;5412;59.450;18.124;2022-12-18T16:38:39;3.60;99.90
10722;DHT22;5412;59.450;18.124;2022-12-18T16:41:18;3.70;99.90
10722;DHT22;5412;59.450;18.124;2022-12-18T16:43:56;3.70;99.90
10722;DHT22;5412;59.450;18.124;2022-12-18T16:46:22;3.60;99.90
10722;DHT22;5412;59.450;18.124;2022-12-18T16:48:48;3.70;99.90
10722;DHT22;5412;59.450;18.124;2022-12-18T16:51:14;3.60;99.90
10722;DHT22;5412;59.450;18.124;2022-12-18T16:53:40;3.60;99.90
10722;DHT22;5412;59.450;18.124;2022-12-18T16:56:06;3.60;99.90
10722;DHT22;5412;59.450;18.124;2022-12-18T16:58:32;3.60;99.90
10722;DHT22;5412;59.450;18.124;2022-12-18T17:00:58;3.60;99.90
10722;DHT22;5412;59.450;18.124;2022-12-18T17:03:24;3.50;99.90
10722;DHT22;5412;59.450;18.124;2022-12-18T17:05:50;3.50;99.90
10722;DHT22;5412;59.450;18.124;2022-12-18T17:08:16;3.50;99.90
10722;DHT22;5412;59.450;18.124;2022-12-18T17:10:42;3.50;99.90
10722;DHT22;5412;59.450;18.124;2022-12-18T17:13:07;3.50;99.90
10722;DHT22;5412;59.450;18.124;2022-12-18T17:15:36;3.50;99.90
10722;DHT22;5412;59.450;18.124;2022-12-18T17:18:02;3.50;99.90
10722;DHT22;5412;59.450;18.124;2022-12-18T17:20:29;3.50;99.90
10722;DHT22;5412;59.450;18.124;2022-12-18T17:22:55;3.50;99.90
10722;DHT22;5412;59.450;18.124;2022-12-18T17:25:21;3.60;99.90
10722;DHT22;5412;59.450;18.124;2022-12-18T17:27:47;3.50;99.90
10722;DHT22;5412;59.450;18.124;2022-12-18T17:30:14;3.60;99.90
10722;DHT22;5412;59.450;18.124;2022-12-18T17:32:40;3.50;99.90
10722;DHT22;5412;59.450;18.124;2022-12-18T17:35:06;3.60;99.90
10722;DHT22;5412;59.450;18.124;2022-12-18T17:37:32;3.60;99.90
10722;DHT22;5412;59.450;18.124;2022-12-18T17:39:58;3.60;99.90
10722;DHT22;5412;59.450;18.124;2022-12-18T17:42:23;3.50;99.90
10722;DHT22;5412;59.450;18.124;2022-12-18T17:44:50;3.50;99.90
10722;DHT22;5412;59.450;18.124;2022-12-18T17:47:17;3.50;99.90
10722;DHT22;5412;59.450;18.124;2022-12-18T17:49:43;3.50;99.90
10722;DHT22;5412;59.450;18.124;2022-12-18T17:52:09;3.40;99.90
10722;DHT22;5412;59.450;18.124;2022-12-18T17:54:35;3.30;99.90
10722;DHT22;5412;59.450;18.124;2022-12-18T17:57:04;3.30;99.90
10722;DHT22;5412;59.450;18.124;2022-12-18T17:59:30;3.30;99.90
10722;DHT22;5412;59.450;18.124;2022-12-18T18:01:56;3.30;99.90
10722;DHT22;5412;59.450;18.124;2022-12-18T18:04:21;3.40;99.90
10722;DHT22;5412;59.450;18.124;2022-12-18T18:06:47;3.30;99.90
10722;DHT22;5412;59.450;18.124;2022-12-18T18:09:13;3.40;99.90
10722;DHT22;5412;59.450;18.124;2022-12-18T18:11:39;3.30;99.90